createdAt,value
2022-09-18T00:00:20.715Z,12.88
2022-09-18T00:01:21.345Z,12.87
2022-09-18T00:02:20.689Z,12.85
2022-09-18T00:03:21.710Z,12.84
2022-09-18T00:04:20.635Z,12.83
2022-09-18T00:05:20.654Z,12.82
2022-09-18T00:06:21.296Z,12.81
2022-09-18T00:07:21.292Z,12.81
2022-09-18T00:08:20.607Z,12.80
2022-09-18T00:09:21.260Z,12.80
2022-09-18T00:10:21.246Z,12.79
2022-09-18T00:11:21.236Z,12.78
2022-09-18T00:12:21.229Z,12.78
2022-09-18T00:13:20.537Z,12.79
2022-09-18T00:14:21.206Z,12.79
2022-09-18T00:15:22.963Z,12.81
2022-09-18T00:16:20.780Z,12.83
2022-09-18T00:17:21.177Z,12.85
2022-09-18T00:18:20.533Z,12.88
2022-09-18T00:19:21.416Z,12.89
2022-09-18T00:20:21.137Z,12.91
2022-09-18T00:21:21.131Z,12.92
2022-09-18T00:22:20.490Z,12.93
2022-09-18T00:23:21.111Z,12.94
2022-09-18T00:24:20.426Z,12.94
2022-09-18T00:25:20.400Z,12.94
2022-09-18T00:26:20.388Z,12.94
2022-09-18T00:27:21.068Z,12.96
2022-09-18T00:28:21.069Z,12.97
2022-09-18T00:29:20.400Z,12.99
2022-09-18T00:30:20.360Z,13.00
2022-09-18T00:31:21.095Z,13.02
2022-09-18T00:32:20.349Z,13.04
2022-09-18T00:33:20.422Z,13.06
2022-09-18T00:34:20.310Z,13.08
2022-09-18T00:35:20.341Z,13.09
2022-09-18T00:36:20.972Z,13.10
2022-09-18T00:37:20.293Z,13.12
2022-09-18T00:38:20.969Z,13.13
2022-09-18T00:39:20.362Z,13.14
2022-09-18T00:40:21.193Z,13.16
2022-09-18T00:41:20.234Z,13.18
2022-09-18T00:42:20.915Z,13.19
2022-09-18T00:43:20.662Z,13.19
2022-09-18T00:44:20.218Z,13.20
2022-09-18T00:45:20.884Z,13.21
2022-09-18T00:46:21.190Z,13.22
2022-09-18T00:47:20.854Z,13.22
2022-09-18T00:48:20.198Z,13.23
2022-09-18T00:49:20.844Z,13.24
2022-09-18T00:50:20.154Z,13.24
2022-09-18T00:51:20.235Z,13.25
2022-09-18T00:52:20.148Z,13.26
2022-09-18T00:53:20.930Z,13.26
2022-09-18T00:54:20.785Z,13.26
2022-09-18T00:55:20.767Z,13.27
2022-09-18T00:56:21.038Z,13.27
2022-09-18T00:57:21.145Z,13.27
2022-09-18T00:58:20.086Z,13.25
2022-09-18T00:59:21.480Z,13.25
2022-09-18T01:00:20.729Z,13.22
2022-09-18T01:01:20.785Z,13.21
2022-09-18T01:02:20.078Z,13.19
2022-09-18T01:03:20.674Z,13.17
2022-09-18T01:04:20.670Z,13.15
2022-09-18T01:05:20.680Z,13.13
2022-09-18T01:06:20.917Z,13.12
2022-09-18T01:07:19.953Z,13.11
2022-09-18T01:08:20.629Z,13.09
2022-09-18T01:09:28.223Z,13.07
2022-09-18T01:10:21.611Z,13.05
2022-09-18T01:11:20.605Z,13.04
2022-09-18T01:12:20.590Z,13.02
2022-09-18T01:13:19.913Z,13.01
2022-09-18T01:14:19.884Z,13.00
2022-09-18T01:15:20.005Z,13.00
2022-09-18T01:16:20.942Z,12.99
2022-09-18T01:17:20.533Z,12.98
2022-09-18T01:18:20.801Z,12.97
2022-09-18T01:19:19.837Z,12.97
2022-09-18T01:20:19.846Z,12.95
2022-09-18T01:21:19.842Z,12.95
2022-09-18T01:22:20.492Z,12.94
2022-09-18T01:23:20.473Z,12.94
2022-09-18T01:24:20.468Z,12.93
2022-09-18T01:25:20.477Z,12.92
2022-09-18T01:26:19.785Z,12.90
2022-09-18T01:27:19.784Z,12.89
2022-09-18T01:28:20.423Z,12.88
2022-09-18T01:29:21.173Z,12.87
2022-09-18T01:30:19.717Z,12.85
2022-09-18T01:31:20.464Z,12.84
2022-09-18T01:32:19.696Z,12.84
2022-09-18T01:33:19.734Z,12.83
2022-09-18T01:34:20.372Z,12.81
2022-09-18T01:35:40.157Z,12.81
2022-09-18T01:36:20.650Z,12.80
2022-09-18T01:37:20.325Z,12.79
2022-09-18T01:38:20.326Z,12.79
2022-09-18T01:39:20.368Z,12.79
2022-09-18T01:40:20.371Z,12.78
2022-09-18T01:41:20.526Z,12.78
2022-09-18T01:42:20.267Z,12.78
2022-09-18T01:43:19.610Z,12.78
2022-09-18T01:44:20.248Z,12.79
2022-09-18T01:45:20.225Z,12.80
2022-09-18T01:46:19.623Z,12.81
2022-09-18T01:47:20.895Z,12.80
2022-09-18T01:48:20.207Z,12.80
2022-09-18T01:49:19.520Z,12.81
2022-09-18T01:50:20.187Z,12.80
2022-09-18T01:51:19.528Z,12.81
2022-09-18T01:52:19.530Z,12.80
2022-09-18T01:53:20.153Z,12.79
2022-09-18T01:54:19.460Z,12.79
2022-09-18T01:55:20.922Z,12.79
2022-09-18T01:56:20.119Z,12.80
2022-09-18T01:57:19.549Z,12.81
2022-09-18T01:58:19.458Z,12.82
2022-09-18T01:59:20.083Z,12.85
2022-09-18T02:00:20.088Z,12.87
2022-09-18T02:01:20.131Z,12.89
2022-09-18T02:02:20.427Z,12.91
2022-09-18T02:03:20.905Z,12.94
2022-09-18T02:04:20.034Z,12.97
2022-09-18T02:05:20.021Z,12.99
2022-09-18T02:06:20.013Z,13.01
2022-09-18T02:07:19.793Z,13.02
2022-09-18T02:08:19.993Z,13.04
2022-09-18T02:09:20.054Z,13.07
2022-09-18T02:10:19.964Z,13.08
2022-09-18T02:11:19.314Z,13.10
2022-09-18T02:12:19.311Z,13.13
2022-09-18T02:13:19.277Z,13.14
2022-09-18T02:14:19.254Z,13.16
2022-09-18T02:15:19.903Z,13.18
2022-09-18T02:16:19.291Z,13.20
2022-09-18T02:17:19.906Z,13.21
2022-09-18T02:18:19.886Z,13.24
2022-09-18T02:19:19.876Z,13.24
2022-09-18T02:20:19.868Z,13.25
2022-09-18T02:21:19.946Z,13.26
2022-09-18T02:22:19.165Z,13.28
2022-09-18T02:23:19.157Z,13.28
2022-09-18T02:24:19.818Z,13.29
2022-09-18T02:25:20.569Z,13.30
2022-09-18T02:26:20.554Z,13.31
2022-09-18T02:27:19.250Z,13.33
2022-09-18T02:28:19.774Z,13.34
2022-09-18T02:29:19.766Z,13.35
2022-09-18T02:30:19.759Z,13.35
2022-09-18T02:31:19.817Z,13.37
2022-09-18T02:32:19.738Z,13.38
2022-09-18T02:33:19.808Z,13.39
2022-09-18T02:34:19.068Z,13.40
2022-09-18T02:35:19.700Z,13.41
2022-09-18T02:36:19.028Z,13.42
2022-09-18T02:37:19.000Z,13.43
2022-09-18T02:38:19.669Z,13.43
2022-09-18T02:39:19.960Z,13.44
2022-09-18T02:40:19.707Z,13.46
2022-09-18T02:41:18.972Z,13.45
2022-09-18T02:42:19.628Z,13.46
2022-09-18T02:43:19.619Z,13.47
2022-09-18T02:44:18.951Z,13.47
2022-09-18T02:45:19.680Z,13.48
2022-09-18T02:46:18.948Z,13.49
2022-09-18T02:47:18.930Z,13.49
2022-09-18T02:48:20.311Z,13.50
2022-09-18T02:49:19.552Z,13.51
2022-09-18T02:50:19.835Z,13.51
2022-09-18T02:53:32.472Z,13.49
2022-09-18T02:54:31.717Z,13.53
2022-09-18T02:55:31.689Z,13.54
2022-09-18T02:56:31.779Z,13.56
2022-09-18T02:57:31.013Z,13.57
2022-09-18T02:58:31.670Z,13.59
2022-09-18T02:59:30.991Z,13.59
2022-09-18T03:00:30.954Z,13.59
2022-09-18T03:01:30.974Z,13.62
2022-09-18T03:02:31.080Z,13.63
2022-09-18T03:03:32.372Z,13.63
2022-09-18T03:04:31.599Z,13.64
2022-09-18T03:05:30.922Z,13.64
2022-09-18T03:06:31.571Z,13.64
2022-09-18T03:07:32.322Z,13.64
2022-09-18T03:08:30.950Z,13.65
2022-09-18T03:09:30.843Z,13.65
2022-09-18T03:10:30.846Z,13.65
2022-09-18T03:11:30.863Z,13.66
2022-09-18T03:12:31.514Z,13.66
2022-09-18T03:13:31.769Z,13.66
2022-09-18T03:14:31.485Z,13.66
2022-09-18T03:15:30.788Z,13.67
2022-09-18T03:16:30.851Z,13.66
2022-09-18T03:17:31.470Z,13.66
2022-09-18T03:18:32.204Z,13.66
2022-09-18T03:19:31.435Z,13.66
2022-09-18T03:20:31.427Z,13.66
2022-09-18T03:21:30.725Z,13.65
2022-09-18T03:22:30.755Z,13.65
2022-09-18T03:23:31.397Z,13.65
2022-09-18T03:24:30.736Z,13.65
2022-09-18T03:25:31.367Z,13.65
2022-09-18T03:26:31.447Z,13.65
2022-09-18T03:27:30.676Z,13.65
2022-09-18T03:28:30.665Z,13.65
2022-09-18T03:29:30.651Z,13.65
2022-09-18T03:30:31.310Z,13.64
2022-09-18T03:31:31.480Z,13.63
2022-09-18T03:32:30.661Z,13.63
2022-09-18T03:33:31.286Z,13.62
2022-09-18T03:34:31.278Z,13.63
2022-09-18T03:35:31.258Z,13.62
2022-09-18T03:36:31.265Z,13.63
2022-09-18T03:37:31.246Z,13.62
2022-09-18T03:38:30.687Z,13.62
2022-09-18T03:39:30.588Z,13.62
2022-09-18T03:40:31.277Z,13.61
2022-09-18T03:41:31.190Z,13.60
2022-09-18T03:42:31.929Z,13.60
2022-09-18T03:43:30.490Z,13.60
2022-09-18T03:44:31.232Z,13.59
2022-09-18T03:45:31.150Z,13.58
2022-09-18T03:46:31.187Z,13.57
2022-09-18T03:47:35.589Z,13.58
2022-09-18T03:48:31.441Z,13.57
2022-09-18T03:49:30.420Z,13.57
2022-09-18T03:50:30.518Z,13.55
2022-09-18T03:51:31.109Z,13.55
2022-09-18T03:52:31.093Z,13.54
2022-09-18T03:53:31.079Z,13.54
2022-09-18T03:54:31.043Z,13.54
2022-09-18T03:55:31.772Z,13.53
2022-09-18T03:56:31.024Z,13.53
2022-09-18T03:57:31.030Z,13.53
2022-09-18T03:58:31.016Z,13.52
2022-09-18T03:59:31.013Z,13.52
2022-09-18T04:00:30.304Z,13.53
2022-09-18T04:01:31.042Z,13.52
2022-09-18T04:02:30.443Z,13.53
2022-09-18T04:03:30.954Z,13.53
2022-09-18T04:04:30.259Z,13.53
2022-09-18T04:05:30.937Z,13.53
2022-09-18T04:06:30.927Z,13.53
2022-09-18T04:07:30.915Z,13.54
2022-09-18T04:08:30.898Z,13.53
2022-09-18T04:09:30.236Z,13.53
2022-09-18T04:10:30.881Z,13.53
2022-09-18T04:11:30.187Z,13.53
2022-09-18T04:12:30.166Z,13.53
2022-09-18T04:13:30.839Z,13.54
2022-09-18T04:14:30.823Z,13.55
2022-09-18T04:15:30.827Z,13.55
2022-09-18T04:16:31.639Z,13.55
2022-09-18T04:17:30.799Z,13.55
2022-09-18T04:18:30.150Z,13.56
2022-09-18T04:19:30.085Z,13.57
2022-09-18T04:20:30.110Z,13.58
2022-09-18T04:21:30.770Z,13.59
2022-09-18T04:22:30.072Z,13.58
2022-09-18T04:23:30.729Z,13.58
2022-09-18T04:24:30.067Z,13.58
2022-09-18T04:25:30.720Z,13.59
2022-09-18T04:26:30.076Z,13.59
2022-09-18T04:27:30.008Z,13.60
2022-09-18T04:28:29.999Z,13.60
2022-09-18T04:29:30.671Z,13.62
2022-09-18T04:30:29.991Z,13.62
2022-09-18T04:31:31.431Z,13.63
2022-09-18T04:32:30.719Z,13.63
2022-09-18T04:33:30.630Z,13.64
2022-09-18T04:34:30.620Z,13.63
2022-09-18T04:35:30.610Z,13.64
2022-09-18T04:36:30.592Z,13.65
2022-09-18T04:37:30.594Z,13.65
2022-09-18T04:38:30.579Z,13.66
2022-09-18T04:39:30.563Z,13.66
2022-09-18T04:40:29.954Z,13.67
2022-09-18T04:41:29.856Z,13.68
2022-09-18T04:42:29.866Z,13.68
2022-09-18T04:43:30.517Z,13.70
2022-09-18T04:44:30.805Z,13.70
2022-09-18T04:45:29.852Z,13.70
2022-09-18T04:46:30.562Z,13.70
2022-09-18T04:47:29.788Z,13.69
2022-09-18T04:48:29.796Z,13.69
2022-09-18T04:49:30.456Z,13.69
2022-09-18T04:50:30.517Z,13.72
2022-09-18T04:51:30.730Z,13.71
2022-09-18T04:52:30.424Z,13.71
2022-09-18T04:53:29.721Z,13.71
2022-09-18T04:54:31.137Z,13.71
2022-09-18T04:55:30.390Z,13.70
2022-09-18T04:56:29.717Z,13.71
2022-09-18T04:57:29.687Z,13.71
2022-09-18T04:58:29.683Z,13.71
2022-09-18T04:59:29.669Z,13.71
2022-09-18T05:00:29.694Z,13.72
2022-09-18T05:01:30.331Z,13.72
2022-09-18T05:02:31.080Z,13.72
2022-09-18T05:03:30.310Z,13.73
2022-09-18T05:04:30.548Z,13.73
2022-09-18T05:05:29.600Z,13.74
2022-09-18T05:06:30.270Z,13.74
2022-09-18T05:07:30.262Z,13.73
2022-09-18T05:08:29.677Z,13.74
2022-09-18T05:09:30.240Z,13.74
2022-09-18T05:10:30.231Z,13.74
2022-09-18T05:11:30.211Z,13.74
2022-09-18T05:12:30.218Z,13.75
2022-09-18T05:13:29.534Z,13.76
2022-09-18T05:14:29.532Z,13.76
2022-09-18T05:15:29.495Z,13.77
2022-09-18T05:16:29.517Z,13.77
2022-09-18T05:17:30.143Z,13.78
2022-09-18T05:18:30.136Z,13.79
2022-09-18T05:19:29.459Z,13.79
2022-09-18T05:20:30.105Z,13.80
2022-09-18T05:21:29.411Z,13.82
2022-09-18T05:22:29.403Z,13.82
2022-09-18T05:23:30.093Z,13.82
2022-09-18T05:24:30.074Z,13.83
2022-09-18T05:25:29.374Z,13.83
2022-09-18T05:26:30.047Z,13.84
2022-09-18T05:27:29.458Z,13.85
2022-09-18T05:28:30.765Z,13.86
2022-09-18T05:29:30.041Z,13.87
2022-09-18T05:30:30.004Z,13.88
2022-09-18T05:31:29.355Z,13.88
2022-09-18T05:32:31.544Z,13.89
2022-09-18T05:33:29.267Z,13.89
2022-09-18T05:34:29.289Z,13.89
2022-09-18T05:35:30.696Z,13.90
2022-09-18T05:36:30.004Z,13.90
2022-09-18T05:37:29.969Z,13.92
2022-09-18T05:38:29.297Z,13.91
2022-09-18T05:39:29.945Z,13.92
2022-09-18T05:40:30.729Z,13.93
2022-09-18T05:41:29.882Z,13.94
2022-09-18T05:42:30.652Z,13.95
2022-09-18T05:43:30.613Z,13.96
2022-09-18T05:44:29.933Z,13.97
2022-09-18T05:45:29.178Z,13.99
2022-09-18T05:46:29.280Z,14.00
2022-09-18T05:47:30.571Z,14.00
2022-09-18T05:48:29.191Z,14.01
2022-09-18T05:49:30.241Z,14.02
2022-09-18T05:50:29.220Z,14.02
2022-09-18T05:51:31.029Z,14.03
2022-09-18T05:52:29.772Z,14.05
2022-09-18T05:53:29.051Z,14.05
2022-09-18T05:54:29.745Z,14.07
2022-09-18T05:55:31.724Z,14.08
2022-09-18T05:56:29.708Z,14.09
2022-09-18T05:57:29.023Z,14.11
2022-09-18T05:58:29.699Z,14.12
2022-09-18T05:59:28.991Z,14.14
2022-09-18T06:00:29.024Z,14.15
2022-09-18T06:01:29.051Z,14.15
2022-09-18T06:02:29.784Z,14.16
2022-09-18T06:03:29.646Z,14.16
2022-09-18T06:04:29.638Z,14.16
2022-09-18T06:05:29.617Z,14.17
2022-09-18T06:06:28.972Z,14.18
2022-09-18T06:07:28.913Z,14.18
2022-09-18T06:08:29.671Z,14.18
2022-09-18T06:09:28.895Z,14.20
2022-09-18T06:10:29.008Z,14.21
2022-09-18T06:11:30.305Z,14.23
2022-09-18T06:12:29.545Z,14.25
2022-09-18T06:13:29.537Z,14.27
2022-09-18T06:14:28.884Z,14.29
2022-09-18T06:15:28.824Z,14.30
2022-09-18T06:16:28.886Z,14.31
2022-09-18T06:17:29.493Z,14.33
2022-09-18T06:18:28.821Z,14.35
2022-09-18T06:19:28.797Z,14.37
2022-09-18T06:20:29.444Z,14.39
2022-09-18T06:21:29.473Z,14.42
2022-09-18T06:22:28.787Z,14.45
2022-09-18T06:23:28.800Z,14.49
2022-09-18T06:24:29.443Z,14.52
2022-09-18T06:25:29.398Z,14.54
2022-09-18T06:26:28.838Z,14.57
2022-09-18T06:27:30.157Z,14.60
2022-09-18T06:28:28.730Z,14.63
2022-09-18T06:29:29.359Z,14.64
2022-09-18T06:30:28.669Z,14.67
2022-09-18T06:31:28.679Z,14.67
2022-09-18T06:32:28.775Z,14.69
2022-09-18T06:33:28.661Z,14.70
2022-09-18T06:34:28.663Z,14.71
2022-09-18T06:35:29.301Z,14.73
2022-09-18T06:36:29.292Z,14.72
2022-09-18T06:37:28.621Z,14.73
2022-09-18T06:38:28.645Z,14.73
2022-09-18T06:39:29.249Z,14.73
2022-09-18T06:40:29.576Z,14.72
2022-09-18T06:41:28.563Z,14.72
2022-09-18T06:42:28.560Z,14.73
2022-09-18T06:43:29.201Z,14.73
2022-09-18T06:44:29.267Z,14.75
2022-09-18T06:45:28.502Z,14.78
2022-09-18T06:46:29.201Z,14.80
2022-09-18T06:47:28.489Z,14.83
2022-09-18T06:48:29.165Z,14.87
2022-09-18T06:49:29.143Z,14.88
2022-09-18T06:50:28.562Z,14.92
2022-09-18T06:51:28.464Z,14.95
2022-09-18T06:52:28.425Z,15.00
2022-09-18T06:53:29.114Z,15.06
2022-09-18T06:54:29.824Z,15.13
2022-09-18T06:55:29.076Z,15.21
2022-09-18T06:56:28.736Z,15.30
2022-09-18T06:57:28.405Z,15.38
2022-09-18T06:58:28.354Z,15.43
2022-09-18T06:59:28.366Z,15.45
2022-09-18T07:00:29.033Z,15.44
2022-09-18T07:01:29.078Z,15.46
2022-09-18T07:02:29.053Z,15.48
2022-09-18T07:03:28.994Z,15.46
2022-09-18T07:04:28.295Z,15.45
2022-09-18T07:05:28.966Z,15.45
2022-09-18T07:06:28.967Z,15.45
2022-09-18T07:07:28.285Z,15.46
2022-09-18T07:08:28.330Z,15.47
2022-09-18T07:09:28.250Z,15.47
2022-09-18T07:10:28.248Z,15.48
2022-09-18T07:11:28.910Z,15.45
2022-09-18T07:12:28.898Z,15.41
2022-09-18T07:13:28.893Z,15.39
2022-09-18T07:14:28.938Z,15.37
2022-09-18T07:15:28.870Z,15.35
2022-09-18T07:16:28.911Z,15.35
2022-09-18T07:17:29.614Z,15.35
2022-09-18T07:18:28.162Z,15.34
2022-09-18T07:19:28.141Z,15.32
2022-09-18T07:20:28.800Z,15.31
2022-09-18T07:21:28.812Z,15.31
2022-09-18T07:22:28.127Z,15.32
2022-09-18T07:23:28.097Z,15.33
2022-09-18T07:24:28.770Z,15.34
2022-09-18T07:25:28.755Z,15.35
2022-09-18T07:26:28.723Z,15.35
2022-09-18T07:27:28.741Z,15.36
2022-09-18T07:28:28.727Z,15.38
2022-09-18T07:29:29.105Z,15.39
2022-09-18T07:30:28.705Z,15.42
2022-09-18T07:31:28.363Z,15.45
2022-09-18T07:32:28.766Z,15.47
2022-09-18T07:33:27.986Z,15.50
2022-09-18T07:34:27.988Z,15.52
2022-09-18T07:35:28.654Z,15.55
2022-09-18T07:36:27.945Z,15.57
2022-09-18T07:37:28.626Z,15.59
2022-09-18T07:38:28.636Z,15.60
2022-09-18T07:39:27.933Z,15.61
2022-09-18T07:40:28.731Z,15.61
2022-09-18T07:41:28.593Z,15.61
2022-09-18T07:42:28.578Z,15.61
2022-09-18T07:43:27.905Z,15.61
2022-09-18T07:44:28.541Z,15.62
2022-09-18T07:45:28.545Z,15.62
2022-09-18T07:46:28.577Z,15.61
2022-09-18T07:47:28.346Z,15.61
2022-09-18T07:48:28.531Z,15.59
2022-09-18T07:49:28.498Z,15.57
2022-09-18T07:50:28.173Z,15.56
2022-09-18T07:51:28.476Z,15.54
2022-09-18T07:52:27.803Z,15.55
2022-09-18T07:53:27.807Z,15.56
2022-09-18T07:54:28.448Z,15.57
2022-09-18T07:55:27.760Z,15.57
2022-09-18T07:56:28.499Z,15.56
2022-09-18T07:57:28.410Z,15.56
2022-09-18T07:58:27.731Z,15.56
2022-09-18T07:59:28.383Z,15.56
2022-09-18T08:00:28.371Z,15.55
2022-09-18T08:01:27.751Z,15.55
2022-09-18T08:02:29.139Z,15.55
2022-09-18T08:03:28.352Z,15.54
2022-09-18T08:04:28.334Z,15.54
2022-09-18T08:05:28.552Z,15.52
2022-09-18T08:06:28.314Z,15.50
2022-09-18T08:07:27.612Z,15.48
2022-09-18T08:08:28.283Z,15.46
2022-09-18T08:09:27.694Z,15.43
2022-09-18T08:10:28.272Z,15.41
2022-09-18T08:11:27.582Z,15.39
2022-09-18T08:12:29.044Z,15.37
2022-09-18T08:13:27.585Z,15.38
2022-09-18T08:14:29.243Z,15.37
2022-09-18T08:15:28.975Z,15.37
2022-09-18T08:16:28.267Z,15.36
2022-09-18T08:17:28.195Z,15.37
2022-09-18T08:18:27.507Z,15.38
2022-09-18T08:19:27.488Z,15.39
2022-09-18T08:20:28.247Z,15.40
2022-09-18T08:21:28.155Z,15.43
2022-09-18T08:22:27.514Z,15.45
2022-09-18T08:23:28.126Z,15.46
2022-09-18T08:24:28.116Z,15.48
2022-09-18T08:25:28.098Z,15.49
2022-09-18T08:26:28.106Z,15.50
2022-09-18T08:27:27.417Z,15.48
2022-09-18T08:28:28.087Z,15.48
2022-09-18T08:29:28.066Z,15.47
2022-09-18T08:30:28.052Z,15.44
2022-09-18T08:31:27.511Z,15.41
2022-09-18T08:32:27.450Z,15.40
2022-09-18T08:33:27.333Z,15.40
2022-09-18T08:34:28.759Z,15.39
2022-09-18T08:35:27.601Z,15.38
2022-09-18T08:36:27.999Z,15.38
2022-09-18T08:37:27.327Z,15.38
2022-09-18T08:38:27.949Z,15.38
2022-09-18T08:39:27.289Z,15.39
2022-09-18T08:40:27.535Z,15.38
2022-09-18T08:41:27.261Z,15.38
2022-09-18T08:42:27.972Z,15.38
2022-09-18T08:43:27.505Z,15.39
2022-09-18T08:44:28.123Z,15.41
2022-09-18T08:45:27.961Z,15.42
2022-09-18T08:46:27.942Z,15.45
2022-09-18T08:47:29.864Z,15.48
2022-09-18T08:48:27.222Z,15.51
2022-09-18T08:49:27.205Z,15.54
2022-09-18T08:50:27.236Z,15.56
2022-09-18T08:51:27.133Z,15.57
2022-09-18T08:52:27.816Z,15.60
2022-09-18T08:53:27.124Z,15.62
2022-09-18T08:54:28.557Z,15.62
2022-09-18T08:55:27.132Z,15.64
2022-09-18T08:56:27.846Z,15.65
2022-09-18T08:57:27.074Z,15.65
2022-09-18T08:58:27.754Z,15.68
2022-09-18T08:59:27.086Z,15.69
2022-09-18T09:00:28.500Z,15.68
2022-09-18T09:01:27.111Z,15.69
2022-09-18T09:02:27.092Z,15.69
2022-09-18T09:03:27.047Z,15.70
2022-09-18T09:04:26.995Z,15.71
2022-09-18T09:05:26.990Z,15.71
2022-09-18T09:06:27.908Z,15.72
2022-09-18T09:07:27.046Z,15.74
2022-09-18T09:08:27.014Z,15.76
2022-09-18T09:09:26.957Z,15.77
2022-09-18T09:10:26.960Z,15.77
2022-09-18T09:11:27.607Z,15.78
2022-09-18T09:12:26.948Z,15.79
2022-09-18T09:13:27.603Z,15.80
2022-09-18T09:14:52.686Z,15.81
2022-09-18T09:15:28.821Z,15.82
2022-09-18T09:16:26.900Z,15.84
2022-09-18T09:17:27.549Z,15.86
2022-09-18T09:18:26.873Z,15.88
2022-09-18T09:19:26.881Z,15.89
2022-09-18T09:20:27.580Z,15.91
2022-09-18T09:21:26.929Z,15.93
2022-09-18T09:22:26.800Z,15.96
2022-09-18T09:23:27.473Z,15.97
2022-09-18T09:24:26.792Z,16.00
2022-09-18T09:25:26.761Z,16.04
2022-09-18T09:26:26.904Z,16.06
2022-09-18T09:27:27.452Z,16.12
2022-09-18T09:28:26.777Z,16.15
2022-09-18T09:29:28.162Z,16.16
2022-09-18T09:30:26.732Z,16.18
2022-09-18T09:31:27.741Z,16.20
2022-09-18T09:32:26.732Z,16.23
2022-09-18T09:33:27.374Z,16.27
2022-09-18T09:34:26.663Z,16.31
2022-09-18T09:35:26.653Z,16.35
2022-09-18T09:36:26.976Z,16.40
2022-09-18T09:37:29.564Z,16.43
2022-09-18T09:38:27.675Z,16.49
2022-09-18T09:39:26.637Z,16.57
2022-09-18T09:40:26.717Z,16.64
2022-09-18T09:41:27.283Z,16.75
2022-09-18T09:42:27.275Z,16.84
2022-09-18T09:43:26.577Z,16.93
2022-09-18T09:44:28.106Z,17.03
2022-09-18T09:45:26.644Z,17.10
2022-09-18T09:46:27.274Z,17.18
2022-09-18T09:47:27.218Z,17.23
2022-09-18T09:48:27.217Z,17.26
2022-09-18T09:49:27.196Z,17.29
2022-09-18T09:50:27.259Z,17.31
2022-09-18T09:51:27.168Z,17.33
2022-09-18T09:52:27.169Z,17.35
2022-09-18T09:53:26.520Z,17.38
2022-09-18T09:54:27.156Z,17.38
2022-09-18T09:55:27.138Z,17.39
2022-09-18T09:56:27.128Z,17.42
2022-09-18T09:57:26.421Z,17.45
2022-09-18T09:58:27.100Z,17.50
2022-09-18T09:59:26.527Z,17.52
2022-09-18T10:00:27.157Z,17.52
2022-09-18T10:01:26.400Z,17.52
2022-09-18T10:02:26.636Z,17.52
2022-09-18T10:03:27.044Z,17.52
2022-09-18T10:04:26.360Z,17.51
2022-09-18T10:05:27.043Z,17.51
2022-09-18T10:06:27.019Z,17.50
2022-09-18T10:07:26.338Z,17.49
2022-09-18T10:08:27.082Z,17.47
2022-09-18T10:09:27.232Z,17.46
2022-09-18T10:10:27.683Z,17.46
2022-09-18T10:11:26.963Z,17.45
2022-09-18T10:12:26.310Z,17.45
2022-09-18T10:13:26.279Z,17.42
2022-09-18T10:14:26.367Z,17.39
2022-09-18T10:15:26.925Z,17.36
2022-09-18T10:16:26.953Z,17.33
2022-09-18T10:17:26.931Z,17.29
2022-09-18T10:18:26.196Z,17.24
2022-09-18T10:19:27.134Z,17.18
2022-09-18T10:20:26.933Z,17.11
2022-09-18T10:21:26.175Z,17.01
2022-09-18T10:22:26.269Z,16.93
2022-09-18T10:23:28.811Z,16.86
2022-09-18T10:24:26.148Z,16.80
2022-09-18T10:25:26.139Z,16.75
2022-09-18T10:26:26.796Z,16.69
2022-09-18T10:27:27.042Z,16.67
2022-09-18T10:28:26.788Z,16.65
2022-09-18T10:29:26.767Z,16.66
2022-09-18T10:30:26.166Z,16.66
2022-09-18T10:31:26.177Z,16.64
2022-09-18T10:32:26.181Z,16.62
2022-09-18T10:33:26.092Z,16.61
2022-09-18T10:34:26.079Z,16.60
2022-09-18T10:35:26.077Z,16.59
2022-09-18T10:36:26.022Z,16.59
2022-09-18T10:37:26.689Z,16.60
2022-09-18T10:38:26.127Z,16.61
2022-09-18T10:39:29.261Z,16.59
2022-09-18T10:40:27.713Z,16.57
2022-09-18T10:41:26.025Z,16.54
2022-09-18T10:42:25.939Z,16.49
2022-09-18T10:43:26.629Z,16.44
2022-09-18T10:44:25.960Z,16.42
2022-09-18T10:45:26.822Z,16.38
2022-09-18T10:46:25.931Z,16.34
2022-09-18T10:47:25.971Z,16.31
2022-09-18T10:48:26.562Z,16.26
2022-09-18T10:49:26.564Z,16.23
2022-09-18T10:50:30.293Z,16.19
2022-09-18T10:51:26.887Z,16.15
2022-09-18T10:52:25.842Z,16.12
2022-09-18T10:53:25.882Z,16.09
2022-09-18T10:54:26.357Z,16.06
2022-09-18T10:55:26.493Z,16.02
2022-09-18T10:56:25.967Z,15.98
2022-09-18T10:57:26.474Z,15.93
2022-09-18T10:58:25.776Z,15.89
2022-09-18T10:59:26.456Z,15.84
2022-09-18T11:00:25.806Z,15.80
2022-09-18T11:01:25.878Z,15.75
2022-09-18T11:02:26.612Z,15.71
2022-09-18T11:03:26.407Z,15.68
2022-09-18T11:04:26.399Z,15.65
2022-09-18T11:05:26.390Z,15.62
2022-09-18T11:06:25.724Z,15.60
2022-09-18T11:07:26.358Z,15.59
2022-09-18T11:08:25.787Z,15.58
2022-09-18T11:09:25.647Z,15.58
2022-09-18T11:10:25.731Z,15.57
2022-09-18T11:11:26.568Z,15.56
2022-09-18T11:12:26.008Z,15.55
2022-09-18T11:13:25.639Z,15.55
2022-09-18T11:14:26.376Z,15.56
2022-09-18T11:15:26.271Z,15.56
2022-09-18T11:16:25.633Z,15.57
2022-09-18T11:17:26.257Z,15.57
2022-09-18T11:18:25.651Z,15.58
2022-09-18T11:19:26.237Z,15.57
2022-09-18T11:20:25.683Z,15.57
2022-09-18T11:21:26.217Z,15.57
2022-09-18T11:22:25.528Z,15.57
2022-09-18T11:23:26.188Z,15.57
2022-09-18T11:24:26.195Z,15.55
2022-09-18T11:25:27.012Z,15.54
2022-09-18T11:26:25.531Z,15.53
2022-09-18T11:27:26.155Z,15.53
2022-09-18T11:28:25.456Z,15.53
2022-09-18T11:29:26.123Z,15.53
2022-09-18T11:30:26.119Z,15.53
2022-09-18T11:31:26.108Z,15.53
2022-09-18T11:32:25.551Z,15.52
2022-09-18T11:33:25.506Z,15.50
2022-09-18T11:34:26.061Z,15.49
2022-09-18T11:35:25.403Z,15.48
2022-09-18T11:36:26.071Z,15.47
2022-09-18T11:37:26.034Z,15.45
2022-09-18T11:38:25.404Z,15.42
2022-09-18T11:39:25.347Z,15.40
2022-09-18T11:40:25.454Z,15.40
2022-09-18T11:41:25.338Z,15.38
2022-09-18T11:42:26.261Z,15.36
2022-09-18T11:43:25.988Z,15.33
2022-09-18T11:44:25.325Z,15.29
2022-09-18T11:45:25.294Z,15.27
2022-09-18T11:46:25.355Z,15.24
2022-09-18T11:47:25.951Z,15.23
2022-09-18T11:48:25.317Z,15.22
2022-09-18T11:49:26.265Z,15.21
2022-09-18T11:50:25.378Z,15.21
2022-09-18T11:51:25.243Z,15.20
2022-09-18T11:52:27.082Z,15.20
2022-09-18T11:53:25.471Z,15.20
2022-09-18T11:54:25.860Z,15.19
2022-09-18T11:55:26.149Z,15.20
2022-09-18T11:56:25.819Z,15.21
2022-09-18T11:57:25.828Z,15.24
2022-09-18T11:58:25.819Z,15.27
2022-09-18T11:59:26.579Z,15.30
2022-09-18T12:00:26.077Z,15.33
2022-09-18T12:01:25.780Z,15.35
2022-09-18T12:02:25.896Z,15.37
2022-09-18T12:03:25.134Z,15.39
2022-09-18T12:04:25.759Z,15.42
2022-09-18T12:05:25.104Z,15.44
2022-09-18T12:06:25.064Z,15.48
2022-09-18T12:07:45.336Z,15.50
2022-09-18T12:08:24.645Z,15.51
2022-09-18T12:09:24.333Z,15.51
2022-09-18T12:10:24.649Z,15.52
2022-09-18T12:11:24.321Z,15.54
2022-09-18T12:12:24.304Z,15.57
2022-09-18T12:13:25.192Z,15.59
2022-09-18T12:14:24.588Z,15.62
2022-09-18T12:15:24.261Z,15.62
2022-09-18T12:16:23.915Z,15.64
2022-09-18T12:17:24.239Z,15.64
2022-09-18T12:18:25.535Z,15.63
2022-09-18T12:19:24.641Z,15.63
2022-09-18T12:20:24.199Z,15.65
2022-09-18T12:21:24.191Z,15.68
2022-09-18T12:22:23.524Z,15.71
2022-09-18T12:23:24.168Z,15.76
2022-09-18T12:24:23.506Z,15.82
2022-09-18T12:25:24.173Z,15.87
2022-09-18T12:26:23.474Z,15.91
2022-09-18T12:27:27.538Z,15.94
2022-09-18T12:28:24.434Z,15.96
2022-09-18T12:29:24.112Z,16.00
2022-09-18T12:30:23.452Z,16.02
2022-09-18T12:31:25.031Z,16.05
2022-09-18T12:32:24.371Z,16.08
2022-09-18T12:33:23.562Z,16.11
2022-09-18T12:34:24.051Z,16.13
2022-09-18T12:35:24.329Z,16.16
2022-09-18T12:36:23.370Z,16.19
2022-09-18T12:37:24.024Z,16.22
2022-09-18T12:38:23.346Z,16.24
2022-09-18T12:39:24.659Z,16.25
2022-09-18T12:40:24.029Z,16.27
2022-09-18T12:41:23.964Z,16.28
2022-09-18T12:42:24.893Z,16.28
2022-09-18T12:43:24.688Z,16.30
2022-09-18T12:44:24.628Z,16.32
2022-09-18T12:45:24.097Z,16.33
2022-09-18T12:46:23.885Z,16.34
2022-09-18T12:47:23.901Z,16.37
2022-09-18T12:48:23.900Z,16.40
2022-09-18T12:49:24.927Z,16.43
2022-09-18T12:50:23.913Z,16.47
2022-09-18T12:51:24.522Z,16.49
2022-09-18T12:52:27.540Z,16.52
2022-09-18T12:53:24.491Z,16.55
2022-09-18T12:54:23.841Z,16.60